Time;durP1;ratioP1;P1;durP2;ratioP2;P2;SDS_P1;SDS_P2;PMS_P1;PMS_P2;Temp;Humidity;BMP_temperature;BMP_pressure;BME280_temperature;BME280_humidity;BME280_pressure;Samples;Min_cycle;Max_cycle;Signal;HPM_P1;HPM_P2
2022/07/01 00:00:20;;;;;;;1.33;1.05;;;;;;;17.82;65.94;97238.84;4990373;28;20247;-79
2022/07/01 00:02:45;;;;;;;1.75;1.10;;;;;;;17.83;65.73;97240.41;4989488;28;20570;-78
2022/07/01 00:05:11;;;;;;;2.83;1.63;;;;;;;17.85;64.82;97257.47;4988933;28;20259;-77
2022/07/01 00:07:36;;;;;;;2.60;2.13;;;;;;;17.79;65.26;97251.50;4975989;28;20702;-77
2022/07/01 00:10:03;;;;;;;2.60;1.85;;;;;;;17.76;65.42;97248.69;4984049;28;20209;-77
2022/07/01 00:12:28;;;;;;;2.25;1.75;;;;;;;17.64;65.44;97238.59;4965527;28;20659;-77
2022/07/01 00:14:54;;;;;;;3.65;1.90;;;;;;;17.65;65.97;97239.38;4989550;28;20192;-77
2022/07/01 00:17:19;;;;;;;2.03;1.75;;;;;;;17.68;65.89;97231.66;5002056;28;20647;-77
2022/07/01 00:19:44;;;;;;;2.58;2.03;;;;;;;17.65;65.09;97226.19;4990664;28;20194;-78
2022/07/01 00:22:10;;;;;;;2.58;1.60;;;;;;;17.67;64.69;97219.59;4982689;28;20085;-77
2022/07/01 00:24:35;;;;;;;2.20;1.33;;;;;;;17.67;64.30;97232.75;4981276;28;20548;-78
2022/07/01 00:27:01;;;;;;;1.30;1.17;;;;;;;17.60;65.36;97248.94;5004523;28;20213;-78
2022/07/01 00:29:26;;;;;;;2.55;1.27;;;;;;;17.60;65.19;97240.25;5004423;28;20266;-78
2022/07/01 00:31:51;;;;;;;2.35;1.25;;;;;;;17.55;66.06;97249.00;4999482;28;20522;-78
2022/07/01 00:34:17;;;;;;;2.08;1.25;;;;;;;17.63;65.14;97255.44;4995062;28;20674;-77
2022/07/01 00:36:42;;;;;;;2.20;1.25;;;;;;;17.64;65.66;97262.28;4982459;28;20344;-78
2022/07/01 00:39:08;;;;;;;2.00;1.38;;;;;;;17.63;65.28;97276.53;4986067;28;20206;-78
2022/07/01 00:41:33;;;;;;;2.15;1.33;;;;;;;17.65;64.87;97274.41;4980240;28;20196;-78
2022/07/01 00:43:58;;;;;;;1.52;1.30;;;;;;;17.74;64.79;97290.31;4972434;28;20217;-77
2022/07/01 00:46:25;;;;;;;2.47;1.52;;;;;;;17.76;66.10;97285.56;5008952;28;20697;-77
2022/07/01 00:48:51;;;;;;;2.60;1.58;;;;;;;17.76;65.89;97288.97;4973772;28;20279;-77
2022/07/01 00:51:20;;;;;;;2.40;1.67;;;;;;;17.70;65.75;97291.94;4988156;28;20647;-78
2022/07/01 00:53:46;;;;;;;2.30;1.88;;;;;;;17.76;65.78;97291.59;4987628;28;20201;-77
2022/07/01 00:56:12;;;;;;;2.30;2.10;;;;;;;17.69;66.40;97291.19;5009580;28;20337;-79
2022/07/01 00:58:38;;;;;;;3.40;2.60;;;;;;;17.78;66.29;97289.44;4990058;28;20342;-80
2022/07/01 01:01:03;;;;;;;2.70;2.45;;;;;;;17.76;66.30;97283.69;5007987;28;20362;-80
2022/07/01 01:03:30;;;;;;;2.75;2.25;;;;;;;17.76;65.65;97288.97;4988796;28;20214;-80
2022/07/01 01:06:00;;;;;;;4.53;2.88;;;;;;;17.76;66.45;97301.34;5009405;28;20198;-78
2022/07/01 01:08:26;;;;;;;3.95;2.70;;;;;;;17.83;66.04;97306.25;5007651;28;20305;-78
2022/07/01 01:10:52;;;;;;;2.97;2.67;;;;;;;17.76;65.65;97296.09;5009050;28;20158;-78
2022/07/01 01:13:17;;;;;;;2.88;2.35;;;;;;;17.72;65.67;97290.63;4973203;28;20288;-78
2022/07/01 01:15:43;;;;;;;3.08;2.72;;;;;;;17.76;66.50;97288.97;4977764;28;20200;-78
2022/07/01 01:18:08;;;;;;;3.05;2.67;;;;;;;17.69;66.54;97279.88;4989346;28;20186;-77
2022/07/01 01:20:37;;;;;;;3.97;2.80;;;;;;;17.66;66.47;97288.34;4975972;28;20197;-77
2022/07/01 01:23:09;;;;;;;3.45;2.50;;;;;;;17.75;66.29;97291.88;5007913;28;20266;-78
2022/07/01 01:25:35;;;;;;;2.60;2.10;;;;;;;17.75;65.05;97292.69;4973707;28;20189;-78
2022/07/01 01:28:01;;;;;;;3.72;2.13;;;;;;;17.71;65.01;97299.56;4974180;28;20373;-78
2022/07/01 01:30:27;;;;;;;2.65;2.28;;;;;;;17.75;65.68;97315.56;4984407;28;20185;-77
2022/07/01 01:32:53;;;;;;;2.90;2.47;;;;;;;17.67;66.25;97317.03;4992576;28;20321;-77
2022/07/01 01:35:19;;;;;;;2.95;2.15;;;;;;;17.74;65.75;97317.44;4983991;28;20275;-77
2022/07/01 01:37:45;;;;;;;4.22;3.05;;;;;;;17.67;65.78;97311.75;5008257;28;20630;-78
2022/07/01 01:40:13;;;;;;;3.22;2.70;;;;;;;17.64;65.49;97322.84;4977159;28;20196;-78
2022/07/01 01:42:39;;;;;;;4.00;2.70;;;;;;;17.58;66.38;97335.31;4987188;28;20188;-77
2022/07/01 01:45:05;;;;;;;4.00;2.38;;;;;;;17.60;65.81;97335.03;4998217;28;20100;-78
2022/07/01 01:47:31;;;;;;;3.13;2.25;;;;;;;17.63;65.46;97337.06;5009034;28;20245;-77
2022/07/01 01:49:57;;;;;;;2.90;2.13;;;;;;;17.60;65.38;97329.78;5006460;28;20683;-77
2022/07/01 01:52:22;;;;;;;3.03;2.13;;;;;;;17.58;64.85;97326.63;4992460;28;20269;-77
2022/07/01 01:54:47;;;;;;;2.67;2.42;;;;;;;17.52;66.28;97323.28;4975512;28;20194;-78
2022/07/01 01:57:14;;;;;;;4.18;2.47;;;;;;;17.55;65.50;97312.19;4986598;28;20155;-78
2022/07/01 01:59:39;;;;;;;2.60;2.28;;;;;;;17.48;65.55;97306.50;4987223;28;20194;-77
2022/07/01 02:02:05;;;;;;;2.70;2.50;;;;;;;17.47;65.30;97319.97;5002484;28;20289;-78
2022/07/01 02:04:31;;;;;;;2.72;2.47;;;;;;;17.50;64.73;97322.78;4971554;28;20186;-78
2022/07/01 02:06:56;;;;;;;3.50;2.78;;;;;;;17.40;65.51;97321.09;4987048;28;20210;-77
2022/07/01 02:09:22;;;;;;;3.97;2.88;;;;;;;17.41;64.98;97316.63;4989510;28;20197;-77
2022/07/01 02:11:47;;;;;;;2.65;2.10;;;;;;;17.37;65.38;97319.00;5005494;28;20631;-77
2022/07/01 02:14:12;;;;;;;3.17;2.67;;;;;;;17.30;65.75;97321.22;5005007;28;20266;-78
2022/07/01 02:16:38;;;;;;;3.20;2.45;;;;;;;17.30;65.70;97318.59;5006778;28;20232;-79
2022/07/01 02:19:04;;;;;;;3.55;2.42;;;;;;;17.38;66.08;97320.59;4985363;28;20689;-79
2022/07/01 02:21:29;;;;;;;3.25;2.60;;;;;;;17.37;66.46;97321.66;5006848;28;20288;-77
2022/07/01 02:23:54;;;;;;;2.47;2.22;;;;;;;17.39;65.85;97313.47;5007813;28;20205;-77
2022/07/01 02:26:20;;;;;;;3.45;2.92;;;;;;;17.39;64.93;97303.75;5007501;28;20634;-77
2022/07/01 02:28:46;;;;;;;2.72;2.53;;;;;;;17.35;65.17;97300.09;4972772;28;20348;-77
2022/07/01 02:31:11;;;;;;;5.40;2.80;;;;;;;17.22;65.51;97277.13;4988694;28;20246;-77
2022/07/01 02:33:37;;;;;;;3.80;2.92;;;;;;;17.19;65.66;97278.47;4983981;28;20731;-79
2022/07/01 02:36:03;;;;;;;3.85;2.95;;;;;;;17.16;65.99;97286.16;5004801;28;20309;-79
2022/07/01 02:38:28;;;;;;;3.65;2.85;;;;;;;17.16;65.85;97292.19;5006586;28;20247;-80
2022/07/01 02:40:53;;;;;;;3.28;2.90;;;;;;;17.17;65.46;97312.19;5008242;28;20188;-79
2022/07/01 02:43:19;;;;;;;4.68;2.97;;;;;;;17.20;66.11;97310.84;4976545;28;20206;-79
2022/07/01 02:45:44;;;;;;;3.80;2.80;;;;;;;17.18;65.58;97300.59;5001638;28;20334;-79
2022/07/01 02:48:10;;;;;;;4.13;2.83;;;;;;;17.19;66.19;97296.91;4975037;28;20678;-79
2022/07/01 02:50:35;;;;;;;4.13;3.42;;;;;;;17.19;65.54;97298.75;5006585;28;20696;-79
2022/07/01 02:53:00;;;;;;;3.42;3.13;;;;;;;17.18;66.38;97291.91;5006083;28;20216;-78
2022/07/01 02:55:26;;;;;;;3.85;3.08;;;;;;;17.20;65.36;97292.41;4988937;28;20203;-77
2022/07/01 02:57:51;;;;;;;3.35;3.05;;;;;;;17.20;66.42;97281.88;4981251;28;20404;-77
2022/07/01 03:00:19;;;;;;;3.67;2.75;;;;;;;17.27;65.70;97297.31;4992029;28;20686;-77
2022/07/01 03:02:44;;;;;;;3.30;2.90;;;;;;;17.23;65.86;97300.53;5002867;28;20217;-77
2022/07/01 03:05:13;;;;;;;3.17;2.80;;;;;;;17.18;66.24;97305.84;4991819;28;20549;-76
2022/07/01 03:07:38;;;;;;;4.20;3.83;;;;;;;17.16;66.34;97294.06;5006232;28;20168;-76
2022/07/01 03:10:05;;;;;;;4.40;3.10;;;;;;;17.21;66.24;97315.03;4988908;28;20210;-76
2022/07/01 03:12:34;;;;;;;3.47;2.97;;;;;;;17.22;66.27;97319.22;4984651;28;20159;-76
2022/07/01 03:15:15;;;;;;;5.15;3.28;;;;;;;16.98;66.95;97300.84;4991965;28;20246;-77
2022/07/01 03:17:43;;;;;;;3.83;3.03;;;;;;;17.13;66.43;97307.78;4979219;28;20639;-76
2022/07/01 03:20:11;;;;;;;3.90;3.50;;;;;;;17.14;66.48;97322.50;5004527;28;20693;-77
2022/07/01 03:22:37;;;;;;;6.13;3.63;;;;;;;17.20;66.79;97324.78;4999363;28;20284;-76
2022/07/01 03:25:03;;;;;;;4.03;3.58;;;;;;;17.20;66.17;97316.91;5001988;28;20554;-77
2022/07/01 03:27:29;;;;;;;4.60;3.17;;;;;;;17.26;65.88;97330.00;4985500;28;20275;-77
2022/07/01 03:29:55;;;;;;;4.20;3.40;;;;;;;17.19;66.72;97317.94;4976906;28;20279;-78
2022/07/01 03:32:20;;;;;;;4.75;3.92;;;;;;;17.25;66.92;97326.56;4989875;28;20657;-78
2022/07/01 03:34:47;;;;;;;4.72;4.13;;;;;;;17.14;65.90;97320.66;4999935;28;20198;-77
2022/07/01 03:37:13;;;;;;;4.82;4.10;;;;;;;17.16;66.06;97312.47;4998980;28;20277;-78
2022/07/01 03:39:40;;;;;;;4.38;3.55;;;;;;;17.14;65.74;97312.75;5005619;28;20185;-78
2022/07/01 03:42:07;;;;;;;6.00;4.43;;;;;;;17.08;65.53;97311.25;4988747;28;20167;-77
2022/07/01 03:44:33;;;;;;;5.15;4.43;;;;;;;17.08;65.60;97313.09;4996561;28;20286;-78
2022/07/01 03:46:59;;;;;;;7.65;4.70;;;;;;;17.04;66.02;97310.25;5006876;28;20205;-78
2022/07/01 03:49:24;;;;;;;5.20;4.15;;;;;;;17.00;65.60;97299.53;5007301;28;20170;-77
2022/07/01 03:51:50;;;;;;;6.25;4.53;;;;;;;17.04;65.90;97305.00;5002602;28;20209;-78
2022/07/01 03:57:05;;;;;;;5.90;4.70;;;;;;;16.98;66.94;97319.25;4992829;28;20660;-77
2022/07/01 03:59:32;;;;;;;6.70;4.30;;;;;;;17.04;66.64;97324.19;4982490;28;20228;-77
2022/07/01 04:01:59;;;;;;;5.72;4.28;;;;;;;17.08;66.17;97323.63;4986346;28;20179;-77
2022/07/01 04:04:26;;;;;;;4.65;3.45;;;;;;;17.10;66.41;97332.00;4985080;28;20268;-77
2022/07/01 04:06:52;;;;;;;4.80;3.95;;;;;;;17.14;66.34;97328.53;4971913;28;20167;-77
2022/07/01 04:09:18;;;;;;;6.20;4.10;;;;;;;17.23;66.51;97340.00;4985391;28;20227;-77
2022/07/01 04:11:44;;;;;;;5.03;4.53;;;;;;;17.25;66.13;97339.72;4986238;28;20194;-77
2022/07/01 04:14:10;;;;;;;5.53;4.63;;;;;;;17.27;66.00;97340.19;4989200;28;20197;-77
2022/07/01 04:16:36;;;;;;;6.18;4.93;;;;;;;17.27;66.19;97345.47;4993601;28;20195;-78
2022/07/01 04:19:02;;;;;;;6.05;4.32;;;;;;;17.27;66.45;97345.47;4973929;28;20197;-77
2022/07/01 04:24:13;;;;;;;7.82;4.65;;;;;;;17.25;66.42;97344.97;4990473;28;20193;-77
2022/07/01 04:26:39;;;;;;;4.72;3.78;;;;;;;17.30;66.42;97352.81;4995334;28;20480;-77
2022/07/01 04:29:05;;;;;;;4.63;3.72;;;;;;;17.33;66.08;97356.72;5003110;28;20024;-77
2022/07/01 04:31:31;;;;;;;8.40;4.20;;;;;;;17.28;66.87;97360.19;4981539;28;20626;-77
2022/07/01 04:33:56;;;;;;;5.35;3.97;;;;;;;17.28;67.06;97354.16;4992367;28;20190;-77
2022/07/01 04:36:22;;;;;;;4.50;4.03;;;;;;;17.41;66.61;97364.78;4989769;28;20171;-77
2022/07/01 04:38:47;;;;;;;5.75;4.47;;;;;;;17.45;66.41;97364.22;4987648;28;20182;-77
2022/07/01 04:43:57;;;;;;;6.47;5.13;;;;;;;17.47;66.46;97367.34;4995960;28;20255;-77
2022/07/01 04:46:22;;;;;;;6.85;5.15;;;;;;;17.50;66.65;97367.56;5009170;28;20283;-77
2022/07/01 04:48:48;;;;;;;6.47;4.20;;;;;;;17.47;66.10;97372.59;4978241;28;20154;-77
2022/07/01 04:51:13;;;;;;;5.78;4.75;;;;;;;17.46;66.51;97376.28;4973428;28;20271;-77
2022/07/01 04:53:39;;;;;;;5.55;4.18;;;;;;;17.48;66.32;97374.16;4989641;28;20252;-77
2022/07/01 04:56:04;;;;;;;4.60;4.15;;;;;;;17.54;65.56;97373.03;4990082;28;20312;-77
2022/07/01 04:58:29;;;;;;;6.20;5.05;;;;;;;17.45;65.98;97358.94;4974431;28;20232;-77
2022/07/01 05:00:55;;;;;;;5.88;5.10;;;;;;;17.44;65.54;97360.00;4988253;28;20302;-77
2022/07/01 05:03:20;;;;;;;5.88;5.15;;;;;;;17.40;66.92;97349.25;4995899;28;20353;-77
2022/07/01 05:05:46;;;;;;;6.10;5.50;;;;;;;17.40;65.59;97355.31;4975637;28;20201;-77
2022/07/01 05:08:11;;;;;;;6.25;4.82;;;;;;;17.39;65.92;97361.66;4973073;28;20676;-77
2022/07/01 05:10:37;;;;;;;5.70;5.10;;;;;;;17.47;65.63;97364.72;4989526;28;20233;-77
2022/07/01 05:13:02;;;;;;;6.22;5.35;;;;;;;17.38;65.68;97360.06;4969643;28;20760;-78
2022/07/01 05:15:28;;;;;;;5.85;5.00;;;;;;;17.36;65.41;97349.03;4987774;28;20665;-79
2022/07/01 05:23:22;;;;;;;6.22;4.68;;;;;;;17.51;65.51;97355.16;4998555;28;20348;-77
2022/07/01 05:25:47;;;;;;;5.55;4.88;;;;;;;17.55;65.52;97353.53;4995053;28;20262;-78
2022/07/01 05:28:12;;;;;;;6.10;5.50;;;;;;;17.55;65.66;97353.53;5007297;28;20686;-77
2022/07/01 05:30:38;;;;;;;6.95;5.13;;;;;;;17.61;65.89;97357.66;5007422;28;20625;-77
2022/07/01 05:33:03;;;;;;;4.90;4.22;;;;;;;17.50;64.93;97345.72;4970291;28;20202;-78
2022/07/01 05:35:29;;;;;;;4.53;3.72;;;;;;;17.47;64.80;97339.16;5001371;28;20688;-77
2022/07/01 05:37:54;;;;;;;5.25;4.03;;;;;;;17.40;64.81;97350.03;5009055;28;20166;-77
2022/07/01 05:40:19;;;;;;;4.10;3.70;;;;;;;17.36;65.67;97359.56;5006522;28;20274;-77
2022/07/01 05:42:45;;;;;;;4.07;3.45;;;;;;;17.35;65.97;97360.63;5001854;28;20166;-77
2022/07/01 05:45:10;;;;;;;4.68;3.97;;;;;;;17.36;66.45;97362.22;4971739;28;20218;-77
2022/07/01 05:47:36;;;;;;;4.65;3.58;;;;;;;17.38;66.67;97365.34;4972206;28;20632;-77
2022/07/01 05:50:01;;;;;;;4.43;3.25;;;;;;;17.43;66.12;97369.75;4990543;28;20273;-77
2022/07/01 05:52:26;;;;;;;4.75;3.47;;;;;;;17.55;65.71;97375.38;4991822;28;20213;-77
2022/07/01 05:54:52;;;;;;;4.07;2.83;;;;;;;17.59;65.51;97378.22;5007042;28;20252;-77
2022/07/01 05:57:17;;;;;;;3.45;3.00;;;;;;;17.50;66.04;97370.19;5007319;28;20730;-77
2022/07/01 05:59:43;;;;;;;4.40;2.78;;;;;;;17.57;65.36;97367.97;4972461;28;20178;-77
2022/07/01 06:02:08;;;;;;;5.00;2.88;;;;;;;17.53;65.50;97369.63;4972904;28;20353;-77
2022/07/01 06:04:33;;;;;;;3.20;2.90;;;;;;;17.54;65.74;97373.81;5007735;28;20649;-77
2022/07/01 06:06:59;;;;;;;3.40;2.80;;;;;;;17.62;65.13;97371.63;4976160;28;20198;-77
2022/07/01 06:09:24;;;;;;;3.53;2.85;;;;;;;17.62;65.49;97382.94;4988939;28;20612;-77
2022/07/01 06:11:50;;;;;;;3.83;3.08;;;;;;;17.59;65.36;97386.13;4986549;28;20186;-77
2022/07/01 06:14:15;;;;;;;3.25;2.80;;;;;;;17.45;65.67;97390.53;5003538;28;20242;-77
2022/07/01 06:16:41;;;;;;;3.17;2.88;;;;;;;17.51;66.09;97379.66;4971068;28;20368;-77
2022/07/01 06:19:06;;;;;;;3.55;3.10;;;;;;;17.55;65.61;97375.38;4992499;28;20658;-77
2022/07/01 06:21:32;;;;;;;4.10;3.00;;;;;;;17.62;65.61;97390.81;4989743;28;20367;-77
2022/07/01 06:23:57;;;;;;;3.25;2.95;;;;;;;17.70;65.46;97392.03;5006756;28;20641;-77
2022/07/01 06:26:22;;;;;;;5.63;3.55;;;;;;;17.68;65.77;97405.47;5006568;28;20123;-77
2022/07/01 06:28:48;;;;;;;4.70;3.60;;;;;;;17.71;65.63;97410.19;5007648;28;20195;-77
2022/07/01 06:31:13;;;;;;;4.35;3.20;;;;;;;17.83;65.91;97411.59;4974799;28;20642;-77
2022/07/01 06:33:38;;;;;;;4.20;2.92;;;;;;;17.93;65.35;97398.31;4987655;28;20209;-77
2022/07/01 06:36:04;;;;;;;3.47;3.00;;;;;;;17.95;64.54;97398.81;5003796;28;20278;-77
2022/07/01 06:38:30;;;;;;;3.50;3.00;;;;;;;18.07;63.82;97401.78;5006445;28;20243;-77
2022/07/01 06:43:39;;;;;;;3.72;2.70;;;;;;;17.94;64.19;97407.78;5001130;28;20174;-77
2022/07/01 06:46:04;;;;;;;2.83;2.20;;;;;;;17.87;63.71;97412.63;4997512;28;20571;-77
2022/07/01 06:48:30;;;;;;;3.10;2.50;;;;;;;17.90;64.39;97417.31;5003340;28;20182;-77
2022/07/01 06:50:55;;;;;;;3.38;2.50;;;;;;;17.92;65.06;97423.88;4997030;28;20166;-77
2022/07/01 06:53:21;;;;;;;2.97;2.25;;;;;;;17.96;64.36;97437.28;4988583;28;20229;-76
2022/07/01 06:55:46;;;;;;;3.58;2.10;;;;;;;18.09;63.78;97447.06;5000466;28;20696;-76
2022/07/01 06:58:11;;;;;;;3.15;2.00;;;;;;;18.04;63.92;97451.63;4971372;28;20229;-76
2022/07/01 07:00:37;;;;;;;2.00;1.90;;;;;;;18.01;63.93;97474.09;4974627;28;20242;-76
2022/07/01 07:03:03;;;;;;;2.78;1.65;;;;;;;17.98;64.73;97482.56;4996261;28;20622;-77
2022/07/01 07:05:30;;;;;;;2.72;1.70;;;;;;;18.00;64.42;97490.94;4996382;28;20296;-77
2022/07/01 07:07:56;;;;;;;3.17;1.63;;;;;;;17.93;63.26;97491.31;4970546;28;20189;-77
2022/07/01 07:10:22;;;;;;;2.70;1.88;;;;;;;17.81;63.01;97498.81;4990029;28;20221;-77
2022/07/01 07:12:47;;;;;;;2.90;1.73;;;;;;;17.75;62.54;97492.84;4985114;28;20640;-78
2022/07/01 07:15:13;;;;;;;3.00;2.15;;;;;;;17.68;63.14;97486.31;4992155;28;20724;-77
2022/07/01 07:17:38;;;;;;;2.42;2.10;;;;;;;17.66;62.74;97473.44;4993926;28;20228;-78
2022/07/01 07:20:04;;;;;;;3.22;2.08;;;;;;;17.64;63.20;97459.00;4984823;28;20167;-77
2022/07/01 07:22:29;;;;;;;4.00;2.33;;;;;;;17.59;63.19;97452.72;4970034;28;20201;-77
2022/07/01 07:24:55;;;;;;;4.18;2.70;;;;;;;17.66;63.91;97451.59;4985172;28;20277;-76
2022/07/01 07:27:20;;;;;;;3.08;2.05;;;;;;;17.70;63.18;97457.84;4994955;28;20189;-77
2022/07/01 07:29:46;;;;;;;2.95;2.30;;;;;;;17.69;62.96;97457.09;4969814;28;20231;-78
2022/07/01 07:32:11;;;;;;;3.83;2.70;;;;;;;17.72;63.23;97453.13;4968887;28;20283;-77
2022/07/01 07:34:37;;;;;;;3.80;2.10;;;;;;;17.77;62.96;97453.81;4985328;28;20299;-77
2022/07/01 07:37:03;;;;;;;2.88;2.10;;;;;;;17.89;62.12;97457.91;4986253;28;20881;-77
2022/07/01 07:39:28;;;;;;;3.60;2.70;;;;;;;17.85;62.58;97441.84;4982999;28;20201;-77
2022/07/01 07:41:54;;;;;;;2.80;2.30;;;;;;;18.00;62.27;97437.47;4990831;28;20205;-77
2022/07/01 07:44:19;;;;;;;2.25;1.90;;;;;;;18.08;62.30;97434.97;4985630;28;20201;-77
2022/07/01 07:46:44;;;;;;;2.05;1.75;;;;;;;18.12;61.47;97440.47;5003894;28;20236;-77
2022/07/01 07:49:10;;;;;;;3.28;2.58;;;;;;;18.07;61.75;97430.00;5008994;28;20215;-77
2022/07/01 07:51:35;;;;;;;2.00;1.80;;;;;;;18.04;62.32;97423.44;5007694;28;20208;-77
2022/07/01 07:54:02;;;;;;;2.15;1.95;;;;;;;18.04;62.56;97433.97;4967009;28;20290;-77
2022/07/01 07:56:27;;;;;;;2.58;2.35;;;;;;;18.10;61.26;97424.94;4996921;28;20298;-77
2022/07/01 07:58:53;;;;;;;3.55;1.90;;;;;;;18.06;61.57;97425.78;4985560;28;20702;-77
2022/07/01 08:01:18;;;;;;;1.90;1.80;;;;;;;18.15;61.58;97434.63;4984258;28;20692;-77
2022/07/01 08:03:45;;;;;;;4.80;1.70;;;;;;;18.27;61.68;97424.41;4994382;28;20220;-77
2022/07/01 08:06:10;;;;;;;3.05;1.48;;;;;;;18.47;61.33;97436.50;4978031;28;20201;-77
2022/07/01 08:08:36;;;;;;;1.65;1.55;;;;;;;18.59;61.97;97438.66;4991519;28;20213;-77
2022/07/01 08:11:01;;;;;;;1.60;1.50;;;;;;;18.70;59.87;97442.69;4989646;28;20363;-78
2022/07/01 08:13:27;;;;;;;2.50;1.60;;;;;;;18.79;59.63;97458.63;4988573;28;20174;-77
2022/07/01 08:15:53;;;;;;;2.65;1.50;;;;;;;18.88;60.44;97459.56;5002757;28;20145;-77
2022/07/01 08:18:18;;;;;;;3.67;1.50;;;;;;;19.05;60.25;97458.19;5008917;28;20205;-78
2022/07/01 08:20:44;;;;;;;2.05;1.70;;;;;;;19.05;59.75;97452.91;5011195;28;20174;-77
2022/07/01 08:23:09;;;;;;;2.25;1.17;;;;;;;19.08;58.67;97452.34;4990267;28;20262;-77
2022/07/01 08:25:34;;;;;;;1.42;1.15;;;;;;;19.14;58.09;97453.81;4991144;28;20494;-77
2022/07/01 08:28:00;;;;;;;2.45;2.00;;;;;;;19.14;57.68;97464.38;4993185;28;20190;-77
2022/07/01 08:30:25;;;;;;;2.20;1.25;;;;;;;19.19;57.58;97474.84;4985790;28;20214;-77
2022/07/01 08:32:51;;;;;;;2.08;1.27;;;;;;;19.22;58.00;97482.16;5006491;28;20189;-77
2022/07/01 08:35:16;;;;;;;1.58;1.20;;;;;;;19.31;58.50;97479.59;5002679;28;20202;-76
2022/07/01 08:37:42;;;;;;;1.35;1.20;;;;;;;19.42;57.79;97477.56;4969542;28;20270;-77
2022/07/01 08:40:08;;;;;;;1.38;1.15;;;;;;;19.42;58.44;97491.56;4988373;28;20275;-77
2022/07/01 08:42:33;;;;;;;1.83;1.17;;;;;;;19.33;58.93;97503.09;4990388;28;20247;-77
2022/07/01 08:44:58;;;;;;;1.48;1.38;;;;;;;19.39;56.96;97496.63;4971694;28;20310;-77
2022/07/01 08:47:24;;;;;;;2.15;1.02;;;;;;;19.33;57.26;97495.16;5007854;28;20212;-77
2022/07/01 08:49:49;;;;;;;1.40;1.20;;;;;;;19.21;58.44;97496.44;5007848;28;20292;-77
2022/07/01 08:52:14;;;;;;;1.92;1.30;;;;;;;19.15;58.51;97497.59;5007456;28;20155;-76
2022/07/01 08:54:41;;;;;;;1.70;1.10;;;;;;;19.39;57.70;97502.69;4990030;28;20215;-77
2022/07/01 08:57:07;;;;;;;1.55;1.30;;;;;;;19.54;57.40;97498.22;4971186;28;20184;-76
2022/07/01 08:59:32;;;;;;;2.28;1.30;;;;;;;19.69;57.93;97505.03;4986306;28;20268;-77
2022/07/01 09:02:00;;;;;;;1.15;1.10;;;;;;;20.02;55.66;97503.84;4977678;28;20193;-76
2022/07/01 09:04:26;;;;;;;1.42;0.98;;;;;;;20.25;57.11;97511.78;4999808;28;20212;-76
2022/07/01 09:06:52;;;;;;;1.65;0.80;;;;;;;20.38;54.85;97505.69;5005009;28;20140;-77
2022/07/01 09:09:21;;;;;;;2.10;1.27;;;;;;;20.25;55.33;97513.66;5003474;28;20279;-77
2022/07/01 09:11:55;;;;;;;2.22;1.85;;;;;;;19.98;55.13;97510.81;4993033;28;20210;-77
2022/07/01 09:14:23;;;;;;;2.75;2.50;;;;;;;20.14;52.97;97519.19;4988689;28;20264;-76
2022/07/01 09:17:08;;;;;;;2.50;2.30;;;;;;;19.99;53.82;97522.91;5006740;28;20274;-77
2022/07/01 09:19:38;;;;;;;2.93;2.60;;;;;;;20.02;55.03;97521.56;4976499;28;20221;-77
2022/07/01 09:22:04;;;;;;;2.67;2.47;;;;;;;20.20;54.55;97525.13;4983864;28;20670;-77
2022/07/01 09:24:30;;;;;;;3.55;2.90;;;;;;;20.40;52.95;97532.59;4987896;28;20452;-77
2022/07/01 09:26:59;;;;;;;3.95;3.55;;;;;;;20.35;53.98;97529.28;4991387;28;20198;-76
2022/07/01 09:29:33;;;;;;;3.95;3.58;;;;;;;20.52;51.86;97532.06;4986090;28;20214;-77
2022/07/01 09:32:04;;;;;;;4.38;3.58;;;;;;;21.00;50.58;97530.69;4985049;28;20206;-76
2022/07/01 09:34:44;;;;;;;3.58;3.28;;;;;;;21.00;51.33;97522.75;4969595;28;20694;-76
2022/07/01 09:37:14;;;;;;;4.85;2.58;;;;;;;21.36;49.06;97516.53;4986908;28;20323;-76
2022/07/01 09:39:47;;;;;;;2.90;2.60;;;;;;;21.78;48.05;97522.31;4992341;28;20179;-76
2022/07/01 09:42:13;;;;;;;2.25;2.05;;;;;;;22.12;47.07;97526.06;4991348;28;20647;-77
2022/07/01 09:45:03;;;;;;;2.97;2.67;;;;;;;21.92;49.21;97518.72;4997175;28;20740;-76
2022/07/01 09:47:29;;;;;;;3.17;2.47;;;;;;;22.37;48.71;97527.22;4995489;28;20238;-76
2022/07/01 09:49:55;;;;;;;2.42;2.22;;;;;;;22.40;45.87;97528.47;5006597;28;20166;-76
2022/07/01 09:52:22;;;;;;;1.20;1.17;;;;;;;21.95;46.32;97524.22;4973162;28;20293;-76
2022/07/01 09:54:49;;;;;;;2.58;1.20;;;;;;;21.54;48.54;97524.56;4984384;28;20193;-76
2022/07/01 09:57:15;;;;;;;1.45;1.35;;;;;;;21.33;50.25;97520.59;4966784;28;20202;-76
2022/07/01 09:59:41;;;;;;;1.60;1.13;;;;;;;21.29;50.19;97532.09;4987375;28;20213;-76
2022/07/01 10:02:10;;;;;;;1.27;0.63;;;;;;;21.09;48.49;97539.44;4990649;28;20238;-76
2022/07/01 10:04:37;;;;;;;1.05;0.63;;;;;;;21.02;48.41;97541.75;4991446;28;20163;-77
2022/07/01 10:07:54;;;;;;;1.20;0.77;;;;;;;20.89;48.74;97542.63;4986504;28;20217;-77
2022/07/01 10:10:35;;;;;;;1.45;0.70;;;;;;;21.48;49.03;97530.00;4973342;28;20420;-76
2022/07/01 10:13:02;;;;;;;1.30;0.90;;;;;;;22.35;46.72;97531.28;4985813;28;20267;-76
2022/07/01 10:15:27;;;;;;;0.80;0.80;;;;;;;22.41;46.72;97535.31;4995908;28;20183;-76
2022/07/01 10:17:53;;;;;;;1.67;0.80;;;;;;;22.18;47.23;97535.44;4981864;28;20846;-76
2022/07/01 10:20:28;;;;;;;0.95;0.55;;;;;;;21.95;47.04;97539.31;4996002;28;20267;-76
2022/07/01 10:23:02;;;;;;;0.95;0.80;;;;;;;21.88;45.67;97537.91;5004635;28;20258;-76
2022/07/01 10:25:47;;;;;;;1.13;0.60;;;;;;;21.96;45.49;97539.00;4964076;28;20552;-76
2022/07/01 10:28:23;;;;;;;2.00;0.73;;;;;;;22.73;43.86;97535.94;4950900;28;20306;-77
2022/07/01 10:30:51;;;;;;;1.88;0.95;;;;;;;23.02;42.68;97534.47;4980238;28;20183;-76
2022/07/01 10:33:27;;;;;;;1.02;0.77;;;;;;;23.18;43.83;97538.19;4985483;28;20214;-76
2022/07/01 10:35:52;;;;;;;1.25;1.10;;;;;;;23.04;45.18;97532.28;4980381;28;20297;-76
2022/07/01 10:38:18;;;;;;;1.23;0.93;;;;;;;22.50;44.52;97540.63;4983770;28;20375;-76
2022/07/01 10:40:46;;;;;;;1.73;0.90;;;;;;;22.44;45.87;97535.47;4980368;28;20255;-76
2022/07/01 10:43:15;;;;;;;1.23;0.60;;;;;;;22.17;45.88;97533.88;4962669;28;20207;-77
2022/07/01 10:45:42;;;;;;;2.35;0.75;;;;;;;22.02;46.39;97537.78;4997025;28;20159;-76
2022/07/01 10:48:19;;;;;;;1.55;0.80;;;;;;;21.90;45.77;97529.66;4971348;28;20655;-76
2022/07/01 10:50:46;;;;;;;0.98;0.70;;;;;;;21.97;45.73;97539.78;4981017;28;20174;-76
2022/07/01 10:53:12;;;;;;;0.90;0.60;;;;;;;22.37;44.01;97537.03;4981121;28;20150;-77
2022/07/01 10:55:38;;;;;;;1.02;0.70;;;;;;;23.12;43.00;97540.25;4989291;28;20371;-77
2022/07/01 10:58:04;;;;;;;2.25;1.42;;;;;;;23.79;41.26;97526.50;4984639;28;20196;-77
2022/07/01 11:00:32;;;;;;;2.50;0.80;;;;;;;24.34;41.17;97522.84;4987026;28;20209;-77
2022/07/01 11:03:21;;;;;;;0.88;0.70;;;;;;;24.55;41.46;97524.75;4995455;28;20188;-77
2022/07/01 11:05:48;;;;;;;1.35;0.93;;;;;;;24.48;41.77;97518.03;4985573;28;20639;-77
2022/07/01 11:08:14;;;;;;;0.77;0.70;;;;;;;24.41;39.55;97523.09;4996281;28;20289;-77
2022/07/01 11:10:41;;;;;;;1.02;1.00;;;;;;;23.77;40.21;97526.03;4982544;28;20776;-77
2022/07/01 11:13:07;;;;;;;2.17;1.00;;;;;;;24.36;38.13;97525.19;4970136;28;20287;-76
2022/07/01 11:15:33;;;;;;;2.05;0.95;;;;;;;24.65;40.76;97519.78;4988243;28;20170;-77
2022/07/01 11:17:59;;;;;;;1.77;0.68;;;;;;;24.59;41.90;97528.28;4998198;28;20198;-76
2022/07/01 11:20:26;;;;;;;1.92;0.90;;;;;;;24.88;39.13;97521.28;4987120;28;20188;-77
2022/07/01 11:22:51;;;;;;;1.70;0.90;;;;;;;24.40;39.32;97526.88;5002900;28;20197;-76
2022/07/01 11:25:18;;;;;;;1.13;0.90;;;;;;;24.36;40.02;97520.63;4971074;28;20279;-77
2022/07/01 11:27:50;;;;;;;0.80;0.77;;;;;;;24.27;41.41;97530.59;4970885;28;20246;-77
2022/07/01 11:30:16;;;;;;;0.95;0.70;;;;;;;24.28;41.13;97518.81;4973326;28;20178;-77
2022/07/01 11:32:45;;;;;;;1.00;0.90;;;;;;;24.04;42.13;97530.13;4991301;28;20670;-77
2022/07/01 11:40:58;;;;;;;1.25;0.82;;;;;;;23.63;42.52;97545.69;4991396;28;20674;-77
2022/07/01 11:43:27;;;;;;;0.70;0.70;;;;;;;23.54;41.98;97542.25;4963504;28;20586;-77
2022/07/01 11:45:54;;;;;;;0.80;0.80;;;;;;;23.58;41.60;97545.06;4979183;28;20523;-76
2022/07/01 11:48:36;;;;;;;1.23;1.00;;;;;;;23.50;41.56;97544.00;4991807;28;20688;-77
2022/07/01 11:51:06;;;;;;;2.88;0.70;;;;;;;23.61;41.08;97545.19;4991889;28;20304;-77
2022/07/01 11:53:32;;;;;;;0.73;0.65;;;;;;;23.69;42.26;97533.75;4983986;28;20266;-76